Flugplatz - Wetter - Augsburg

[Quelle: ADDS]
METAR
EDMA 241050Z 22007KT CAVOK 15/04 Q1015 =
TAF
EDMA 240800Z 2409/2418 15007KT CAVOK =
SR / SS: 06:40 / 15:31 UTC (Günzburg 2017-11-24)

Flugplatz - Wetter - Laupheim

[Quelle: ADDS]
METAR
ETHL 241020Z 22008KT 9999 BKN100 BKN260 12/02 Q1015 BLU FCST CANCEL =
TAF
AMD ETHL 241034Z 2409/2418 23008KT 9999 NSW FEW080 BKN230 BECMG 2410/2412 24010G20KT 9999 NSW BKN080 BKN160 CANCEL 1100 =

Notice: Undefined index: sun in /homepages/1/d158740339/htdocs/joomla/modules/mod_wx/tmpl/default.php on line 13

Flugplatz - Wetter - Memmingen

[Quelle: ADDS]
METAR
EDJA 241050Z 22009KT CAVOK 11/04 Q1015 =
TAF
EDJA 240800Z 2409/2418 22008KT CAVOK =

Notice: Undefined index: sun in /homepages/1/d158740339/htdocs/joomla/modules/mod_wx/tmpl/default.php on line 13

Flugplatz - Wetter - Neuburg/Donau

[Quelle: ADDS]
METAR
ETSN 241020Z VRB01KT 9999 FEW090 SCT110 BKN210 10/05 Q1015 BLU+BLU+ =
TAF
ETSN 240815Z 2409/2418 VRB03KT 9999 NSW SCT100 SCT240 BY ETGL =

Notice: Undefined index: sun in /homepages/1/d158740339/htdocs/joomla/modules/mod_wx/tmpl/default.php on line 13

Flugplatz - Wetter - Stuttgart

[Quelle: ADDS]
METAR
EDDS 241050Z 19006KT 150V220 9999 FEW035 BKN250 16/07 Q1013 NOSIG =
TAF
EDDS 240500Z 2406/2506 17002KT CAVOK BECMG 2409/2411 22008KT BECMG 2420/2422 21003KT PROB40 TEMPO 2503/2506 RA BKN013 =

Notice: Undefined index: sun in /homepages/1/d158740339/htdocs/joomla/modules/mod_wx/tmpl/default.php on line 13

Flugplatz - Wetter - Niederstetten

[Quelle: ADDS]
METAR
ETHN 241020Z 20011KT 9999 FEW045 BKN230 13/06 Q1012 BLU+BLU =
TAF
AMD ETHN 241043Z 2409/2418 20010KT 9999 NSW SCT050 BKN250 TEMPO 2411/2418 24015KT 9999 -RA BKN050 BKN100 CANCEL 1100 =

Notice: Undefined index: sun in /homepages/1/d158740339/htdocs/joomla/modules/mod_wx/tmpl/default.php on line 13